sensor_id;sensor_type;location;lat;lon;timestamp;pressure;altitude;pressure_sealevel;temperature;humidity
12213;BME280;6169;44.158;22.788;2022-07-06T00:00:02;100884.16;;;24.31;nan
12213;BME280;6169;44.158;22.788;2022-07-06T00:05:05;100869.19;;;24.13;nan
12213;BME280;6169;44.158;22.788;2022-07-06T00:10:08;100850.09;;;24.22;nan
12213;BME280;6169;44.158;22.788;2022-07-06T00:15:12;100847.19;;;23.79;nan
12213;BME280;6169;44.158;22.788;2022-07-06T00:20:14;100850.19;;;24.12;nan
12213;BME280;6169;44.158;22.788;2022-07-06T00:25:17;100840.91;;;23.74;nan
12213;BME280;6169;44.158;22.788;2022-07-06T00:30:21;100838.59;;;24.15;nan
12213;BME280;6169;44.158;22.788;2022-07-06T00:35:23;100841.78;;;24.75;nan
12213;BME280;6169;44.158;22.788;2022-07-06T00:40:27;100839.03;;;23.98;nan
12213;BME280;6169;44.158;22.788;2022-07-06T00:45:31;100827.09;;;24.08;nan
12213;BME280;6169;44.158;22.788;2022-07-06T00:50:34;100822.50;;;24.27;nan
12213;BME280;6169;44.158;22.788;2022-07-06T00:55:38;100815.94;;;24.18;nan
12213;BME280;6169;44.158;22.788;2022-07-06T01:00:42;100803.69;;;23.76;nan
12213;BME280;6169;44.158;22.788;2022-07-06T01:05:45;100802.66;;;23.72;nan
12213;BME280;6169;44.158;22.788;2022-07-06T01:10:47;100786.31;;;23.81;nan
12213;BME280;6169;44.158;22.788;2022-07-06T01:15:51;100795.06;;;23.54;nan
12213;BME280;6169;44.158;22.788;2022-07-06T01:21:07;100799.78;;;24.59;nan
12213;BME280;6169;44.158;22.788;2022-07-06T01:26:11;100800.59;;;23.88;nan
12213;BME280;6169;44.158;22.788;2022-07-06T01:31:14;100800.16;;;23.36;nan
12213;BME280;6169;44.158;22.788;2022-07-06T01:36:19;100805.16;;;23.98;nan
12213;BME280;6169;44.158;22.788;2022-07-06T01:41:21;100807.97;;;24.41;nan
12213;BME280;6169;44.158;22.788;2022-07-06T01:46:24;100804.00;;;23.69;nan
12213;BME280;6169;44.158;22.788;2022-07-06T01:51:27;100800.44;;;23.74;nan
12213;BME280;6169;44.158;22.788;2022-07-06T01:56:30;100823.88;;;23.71;nan
12213;BME280;6169;44.158;22.788;2022-07-06T02:01:32;100834.47;;;24.12;nan
12213;BME280;6169;44.158;22.788;2022-07-06T02:06:36;100839.13;;;24.17;nan
12213;BME280;6169;44.158;22.788;2022-07-06T02:11:38;100845.91;;;24.01;nan
12213;BME280;6169;44.158;22.788;2022-07-06T02:16:40;100843.19;;;24.25;nan
12213;BME280;6169;44.158;22.788;2022-07-06T02:21:44;100849.75;;;24.77;nan
12213;BME280;6169;44.158;22.788;2022-07-06T02:26:46;100859.31;;;26.12;nan
12213;BME280;6169;44.158;22.788;2022-07-06T02:31:49;100862.31;;;26.98;nan
12213;BME280;6169;44.158;22.788;2022-07-06T02:36:53;100861.81;;;27.46;nan
12213;BME280;6169;44.158;22.788;2022-07-06T02:41:55;100859.97;;;27.42;nan
12213;BME280;6169;44.158;22.788;2022-07-06T02:46:57;100854.75;;;26.76;nan
12213;BME280;6169;44.158;22.788;2022-07-06T02:52:01;100857.22;;;26.78;nan
12213;BME280;6169;44.158;22.788;2022-07-06T02:57:04;100865.78;;;26.07;nan
12213;BME280;6169;44.158;22.788;2022-07-06T03:02:06;100870.22;;;26.91;nan
12213;BME280;6169;44.158;22.788;2022-07-06T03:07:10;100874.31;;;26.94;nan
12213;BME280;6169;44.158;22.788;2022-07-06T03:12:13;100871.78;;;26.70;nan
12213;BME280;6169;44.158;22.788;2022-07-06T03:17:16;100880.81;;;26.62;nan
12213;BME280;6169;44.158;22.788;2022-07-06T03:22:20;100886.44;;;26.56;nan
12213;BME280;6169;44.158;22.788;2022-07-06T03:27:22;100878.84;;;25.50;nan
12213;BME280;6169;44.158;22.788;2022-07-06T03:32:25;100896.97;;;25.94;nan
12213;BME280;6169;44.158;22.788;2022-07-06T03:37:29;100901.78;;;27.54;nan
12213;BME280;6169;44.158;22.788;2022-07-06T03:42:31;100897.28;;;28.03;nan
12213;BME280;6169;44.158;22.788;2022-07-06T03:47:34;100896.16;;;26.81;nan
12213;BME280;6169;44.158;22.788;2022-07-06T03:52:37;100887.72;;;25.85;nan
12213;BME280;6169;44.158;22.788;2022-07-06T03:57:40;100898.97;;;25.13;nan
12213;BME280;6169;44.158;22.788;2022-07-06T04:02:42;100893.25;;;24.85;nan
12213;BME280;6169;44.158;22.788;2022-07-06T04:07:46;100898.69;;;24.90;nan
12213;BME280;6169;44.158;22.788;2022-07-06T04:12:49;100893.72;;;24.68;nan
12213;BME280;6169;44.158;22.788;2022-07-06T04:17:51;100897.94;;;24.31;nan
12213;BME280;6169;44.158;22.788;2022-07-06T04:22:55;100904.00;;;24.87;nan
12213;BME280;6169;44.158;22.788;2022-07-06T04:27:57;100904.59;;;24.83;nan
12213;BME280;6169;44.158;22.788;2022-07-06T04:33:00;100912.66;;;24.75;nan
12213;BME280;6169;44.158;22.788;2022-07-06T04:38:04;100919.25;;;24.79;nan
12213;BME280;6169;44.158;22.788;2022-07-06T04:43:07;100912.66;;;24.75;nan
12213;BME280;6169;44.158;22.788;2022-07-06T04:48:09;100919.47;;;25.07;nan
12213;BME280;6169;44.158;22.788;2022-07-06T04:53:13;100915.03;;;24.87;nan
12213;BME280;6169;44.158;22.788;2022-07-06T04:58:15;100920.34;;;25.02;nan
12213;BME280;6169;44.158;22.788;2022-07-06T05:03:17;100920.66;;;25.00;nan
12213;BME280;6169;44.158;22.788;2022-07-06T05:08:21;100928.69;;;25.21;nan
12213;BME280;6169;44.158;22.788;2022-07-06T05:13:23;100921.44;;;25.25;nan
12213;BME280;6169;44.158;22.788;2022-07-06T05:18:25;100930.44;;;24.88;nan
12213;BME280;6169;44.158;22.788;2022-07-06T05:23:29;100930.69;;;25.15;nan
12213;BME280;6169;44.158;22.788;2022-07-06T05:28:32;100940.47;;;25.02;nan
12213;BME280;6169;44.158;22.788;2022-07-06T05:33:34;100942.63;;;25.05;nan
12213;BME280;6169;44.158;22.788;2022-07-06T05:38:38;100938.94;;;24.91;nan
12213;BME280;6169;44.158;22.788;2022-07-06T05:43:41;100947.78;;;24.93;nan
12213;BME280;6169;44.158;22.788;2022-07-06T05:48:43;100942.91;;;25.09;nan
12213;BME280;6169;44.158;22.788;2022-07-06T05:54:04;100940.78;;;25.01;nan
12213;BME280;6169;44.158;22.788;2022-07-06T05:59:06;100941.56;;;25.25;nan
12213;BME280;6169;44.158;22.788;2022-07-06T06:04:08;100937.13;;;25.30;nan
12213;BME280;6169;44.158;22.788;2022-07-06T06:09:12;100933.47;;;25.53;nan
12213;BME280;6169;44.158;22.788;2022-07-06T06:14:14;100936.97;;;24.97;nan
12213;BME280;6169;44.158;22.788;2022-07-06T06:19:17;100939.34;;;25.27;nan
12213;BME280;6169;44.158;22.788;2022-07-06T06:24:21;100926.38;;;25.47;nan
12213;BME280;6169;44.158;22.788;2022-07-06T06:29:24;100935.78;;;25.46;nan
12213;BME280;6169;44.158;22.788;2022-07-06T06:34:27;100926.69;;;25.26;nan
12213;BME280;6169;44.158;22.788;2022-07-06T06:39:31;100924.28;;;25.39;nan
12213;BME280;6169;44.158;22.788;2022-07-06T06:44:33;100912.78;;;25.50;nan
12213;BME280;6169;44.158;22.788;2022-07-06T06:49:35;100919.31;;;26.11;nan
12213;BME280;6169;44.158;22.788;2022-07-06T06:54:39;100921.22;;;25.59;nan
12213;BME280;6169;44.158;22.788;2022-07-06T06:59:41;100912.78;;;25.50;nan
12213;BME280;6169;44.158;22.788;2022-07-06T07:04:44;100922.56;;;25.81;nan
12213;BME280;6169;44.158;22.788;2022-07-06T07:09:48;100916.09;;;26.04;nan
12213;BME280;6169;44.158;22.788;2022-07-06T07:14:50;100913.00;;;25.73;nan
12213;BME280;6169;44.158;22.788;2022-07-06T07:19:52;100911.47;;;25.86;nan
12213;BME280;6169;44.158;22.788;2022-07-06T07:24:58;100921.81;;;25.56;nan
12213;BME280;6169;44.158;22.788;2022-07-06T07:30:00;100921.28;;;25.73;nan
12213;BME280;6169;44.158;22.788;2022-07-06T07:35:03;100928.78;;;25.91;nan
12213;BME280;6169;44.158;22.788;2022-07-06T07:40:08;100922.94;;;25.55;nan
12213;BME280;6169;44.158;22.788;2022-07-06T07:45:11;100919.63;;;26.24;nan
12213;BME280;6169;44.158;22.788;2022-07-06T07:50:14;100922.63;;;25.94;nan
12213;BME280;6169;44.158;22.788;2022-07-06T07:55:18;100922.19;;;25.87;nan
12213;BME280;6169;44.158;22.788;2022-07-06T08:00:20;100921.63;;;25.90;nan
12213;BME280;6169;44.158;22.788;2022-07-06T08:05:25;100926.38;;;26.17;nan
12213;BME280;6169;44.158;22.788;2022-07-06T08:10:28;100928.50;;;26.07;nan
12213;BME280;6169;44.158;22.788;2022-07-06T08:15:31;100941.31;;;26.03;nan
12213;BME280;6169;44.158;22.788;2022-07-06T08:20:33;100947.19;;;26.29;nan
12213;BME280;6169;44.158;22.788;2022-07-06T08:25:37;100936.31;;;25.86;nan
12213;BME280;6169;44.158;22.788;2022-07-06T08:30:39;100941.91;;;25.81;nan
12213;BME280;6169;44.158;22.788;2022-07-06T08:35:42;100950.28;;;25.94;nan
12213;BME280;6169;44.158;22.788;2022-07-06T08:40:47;100936.72;;;26.12;nan
12213;BME280;6169;44.158;22.788;2022-07-06T08:45:53;100941.94;;;26.13;nan
12213;BME280;6169;44.158;22.788;2022-07-06T08:50:56;100943.97;;;26.08;nan
12213;BME280;6169;44.158;22.788;2022-07-06T08:56:01;100946.28;;;25.82;nan
12213;BME280;6169;44.158;22.788;2022-07-06T09:01:03;100946.47;;;26.23;nan
12213;BME280;6169;44.158;22.788;2022-07-06T09:06:06;100938.78;;;26.80;nan
12213;BME280;6169;44.158;22.788;2022-07-06T09:11:11;100942.50;;;27.03;nan
12213;BME280;6169;44.158;22.788;2022-07-06T09:16:14;100954.06;;;27.33;nan
12213;BME280;6169;44.158;22.788;2022-07-06T09:21:22;100937.47;;;27.56;nan
12213;BME280;6169;44.158;22.788;2022-07-06T09:26:27;100940.56;;;27.18;nan
12213;BME280;6169;44.158;22.788;2022-07-06T09:31:29;100949.56;;;27.74;nan
12213;BME280;6169;44.158;22.788;2022-07-06T09:36:43;100942.56;;;29.41;nan
12213;BME280;6169;44.158;22.788;2022-07-06T09:41:49;100943.66;;;28.74;nan
12213;BME280;6169;44.158;22.788;2022-07-06T09:46:53;100953.97;;;28.42;nan
12213;BME280;6169;44.158;22.788;2022-07-06T09:51:58;100946.94;;;28.13;nan
12213;BME280;6169;44.158;22.788;2022-07-06T09:57:03;100936.31;;;28.69;nan
12213;BME280;6169;44.158;22.788;2022-07-06T10:02:07;100932.75;;;29.26;nan
12213;BME280;6169;44.158;22.788;2022-07-06T10:07:10;100940.97;;;29.83;nan
12213;BME280;6169;44.158;22.788;2022-07-06T10:12:17;100931.97;;;29.69;nan
12213;BME280;6169;44.158;22.788;2022-07-06T10:17:22;100926.69;;;30.20;nan
12213;BME280;6169;44.158;22.788;2022-07-06T10:22:25;100928.00;;;29.18;nan
12213;BME280;6169;44.158;22.788;2022-07-06T10:27:29;100932.47;;;29.62;nan
12213;BME280;6169;44.158;22.788;2022-07-06T10:32:31;100921.66;;;29.52;nan
12213;BME280;6169;44.158;22.788;2022-07-06T10:37:34;100913.63;;;29.42;nan
12213;BME280;6169;44.158;22.788;2022-07-06T10:42:42;100905.28;;;29.16;nan
12213;BME280;6169;44.158;22.788;2022-07-06T10:47:44;100908.41;;;29.84;nan
12213;BME280;6169;44.158;22.788;2022-07-06T10:52:52;100900.53;;;30.03;nan
12213;BME280;6169;44.158;22.788;2022-07-06T10:57:56;100902.34;;;29.38;nan
12213;BME280;6169;44.158;22.788;2022-07-06T11:03:30;100890.28;;;29.52;nan
12213;BME280;6169;44.158;22.788;2022-07-06T11:08:43;100901.53;;;29.12;nan
12213;BME280;6169;44.158;22.788;2022-07-06T11:13:53;100907.25;;;29.33;nan
12213;BME280;6169;44.158;22.788;2022-07-06T11:19:05;100900.22;;;29.61;nan
12213;BME280;6169;44.158;22.788;2022-07-06T11:24:09;100891.78;;;30.78;nan
12213;BME280;6169;44.158;22.788;2022-07-06T11:29:15;100892.31;;;30.15;nan
12213;BME280;6169;44.158;22.788;2022-07-06T11:34:19;100889.47;;;29.68;nan
12213;BME280;6169;44.158;22.788;2022-07-06T11:39:22;100892.19;;;30.03;nan
12213;BME280;6169;44.158;22.788;2022-07-06T11:44:26;100882.69;;;30.22;nan
12213;BME280;6169;44.158;22.788;2022-07-06T11:49:29;100877.66;;;29.37;nan
12213;BME280;6169;44.158;22.788;2022-07-06T11:54:32;100875.88;;;29.41;nan
12213;BME280;6169;44.158;22.788;2022-07-06T11:59:37;100877.28;;;30.16;nan
12213;BME280;6169;44.158;22.788;2022-07-06T12:04:42;100878.19;;;29.82;nan
12213;BME280;6169;44.158;22.788;2022-07-06T12:09:46;100886.81;;;29.20;nan
12213;BME280;6169;44.158;22.788;2022-07-06T12:14:52;100881.59;;;29.70;nan
12213;BME280;6169;44.158;22.788;2022-07-06T12:19:55;100875.91;;;30.40;nan
12213;BME280;6169;44.158;22.788;2022-07-06T12:24:57;100887.41;;;30.12;nan
12213;BME280;6169;44.158;22.788;2022-07-06T12:30:10;100865.34;;;30.16;nan
12213;BME280;6169;44.158;22.788;2022-07-06T12:35:12;100867.63;;;30.23;nan
12213;BME280;6169;44.158;22.788;2022-07-06T12:40:15;100866.41;;;29.42;nan
12213;BME280;6169;44.158;22.788;2022-07-06T12:45:19;100861.28;;;29.87;nan
12213;BME280;6169;44.158;22.788;2022-07-06T12:50:30;100856.97;;;30.25;nan
12213;BME280;6169;44.158;22.788;2022-07-06T12:55:34;100876.22;;;29.83;nan
12213;BME280;6169;44.158;22.788;2022-07-06T13:00:45;100866.03;;;29.87;nan
12213;BME280;6169;44.158;22.788;2022-07-06T13:05:49;100860.53;;;30.34;nan
12213;BME280;6169;44.158;22.788;2022-07-06T13:10:52;100863.88;;;30.01;nan
12213;BME280;6169;44.158;22.788;2022-07-06T13:15:55;100860.78;;;30.03;nan
12213;BME280;6169;44.158;22.788;2022-07-06T13:20:58;100849.53;;;29.99;nan
12213;BME280;6169;44.158;22.788;2022-07-06T13:26:00;100847.41;;;30.43;nan
12213;BME280;6169;44.158;22.788;2022-07-06T13:31:04;100845.56;;;30.00;nan
12213;BME280;6169;44.158;22.788;2022-07-06T13:36:06;100843.13;;;29.99;nan
12213;BME280;6169;44.158;22.788;2022-07-06T13:41:09;100852.78;;;29.92;nan
12213;BME280;6169;44.158;22.788;2022-07-06T13:46:13;100839.63;;;30.28;nan
12213;BME280;6169;44.158;22.788;2022-07-06T13:51:18;100849.91;;;30.36;nan
12213;BME280;6169;44.158;22.788;2022-07-06T13:56:20;100839.22;;;30.38;nan
12213;BME280;6169;44.158;22.788;2022-07-06T14:01:24;100831.75;;;30.21;nan
12213;BME280;6169;44.158;22.788;2022-07-06T14:06:26;100834.78;;;30.07;nan
12213;BME280;6169;44.158;22.788;2022-07-06T14:11:29;100827.94;;;29.87;nan
12213;BME280;6169;44.158;22.788;2022-07-06T14:16:32;100819.75;;;30.00;nan
12213;BME280;6169;44.158;22.788;2022-07-06T14:21:36;100830.78;;;29.35;nan
12213;BME280;6169;44.158;22.788;2022-07-06T14:26:38;100815.06;;;30.30;nan
12213;BME280;6169;44.158;22.788;2022-07-06T14:31:42;100814.16;;;30.47;nan
12213;BME280;6169;44.158;22.788;2022-07-06T14:36:44;100804.75;;;29.75;nan
12213;BME280;6169;44.158;22.788;2022-07-06T14:41:46;100795.25;;;30.61;nan
12213;BME280;6169;44.158;22.788;2022-07-06T14:46:50;100813.28;;;30.16;nan
12213;BME280;6169;44.158;22.788;2022-07-06T14:51:52;100794.53;;;30.43;nan
12213;BME280;6169;44.158;22.788;2022-07-06T14:56:55;100790.00;;;30.59;nan
12213;BME280;6169;44.158;22.788;2022-07-06T15:01:58;100786.00;;;30.48;nan
12213;BME280;6169;44.158;22.788;2022-07-06T15:07:01;100782.09;;;30.41;nan
12213;BME280;6169;44.158;22.788;2022-07-06T15:12:04;100790.34;;;30.88;nan
12213;BME280;6169;44.158;22.788;2022-07-06T15:17:08;100775.72;;;30.40;nan
12213;BME280;6169;44.158;22.788;2022-07-06T15:22:11;100781.44;;;31.15;nan
12213;BME280;6169;44.158;22.788;2022-07-06T15:27:13;100783.38;;;30.73;nan
12213;BME280;6169;44.158;22.788;2022-07-06T15:32:17;100769.25;;;30.78;nan
12213;BME280;6169;44.158;22.788;2022-07-06T15:37:19;100766.81;;;30.17;nan
12213;BME280;6169;44.158;22.788;2022-07-06T15:42:22;100773.97;;;30.86;nan
12213;BME280;6169;44.158;22.788;2022-07-06T15:47:26;100770.03;;;30.36;nan
12213;BME280;6169;44.158;22.788;2022-07-06T15:52:29;100764.41;;;30.07;nan
12213;BME280;6169;44.158;22.788;2022-07-06T15:57:31;100775.97;;;30.77;nan
12213;BME280;6169;44.158;22.788;2022-07-06T16:02:35;100775.84;;;30.44;nan
12213;BME280;6169;44.158;22.788;2022-07-06T16:07:37;100782.78;;;30.88;nan
12213;BME280;6169;44.158;22.788;2022-07-06T16:12:39;100769.94;;;30.24;nan
12213;BME280;6169;44.158;22.788;2022-07-06T16:17:43;100782.22;;;30.14;nan
12213;BME280;6169;44.158;22.788;2022-07-06T16:22:46;100777.06;;;30.64;nan
12213;BME280;6169;44.158;22.788;2022-07-06T16:27:49;100788.25;;;29.52;nan
12213;BME280;6169;44.158;22.788;2022-07-06T16:32:54;100798.25;;;30.09;nan
12213;BME280;6169;44.158;22.788;2022-07-06T16:37:56;100798.91;;;29.24;nan
12213;BME280;6169;44.158;22.788;2022-07-06T16:42:59;100794.56;;;29.87;nan
12213;BME280;6169;44.158;22.788;2022-07-06T16:48:04;100801.41;;;30.07;nan
12213;BME280;6169;44.158;22.788;2022-07-06T16:53:07;100801.44;;;29.90;nan
12213;BME280;6169;44.158;22.788;2022-07-06T16:58:09;100802.84;;;29.23;nan
12213;BME280;6169;44.158;22.788;2022-07-06T17:03:13;100814.25;;;29.39;nan
12213;BME280;6169;44.158;22.788;2022-07-06T17:08:15;100807.91;;;29.12;nan
12213;BME280;6169;44.158;22.788;2022-07-06T17:13:17;100804.47;;;29.15;nan
12213;BME280;6169;44.158;22.788;2022-07-06T17:18:21;100807.53;;;28.79;nan
12213;BME280;6169;44.158;22.788;2022-07-06T17:23:24;100798.91;;;28.98;nan
12213;BME280;6169;44.158;22.788;2022-07-06T17:28:26;100805.66;;;28.48;nan
12213;BME280;6169;44.158;22.788;2022-07-06T17:33:30;100799.59;;;28.46;nan
12213;BME280;6169;44.158;22.788;2022-07-06T17:38:32;100806.25;;;28.36;nan
12213;BME280;6169;44.158;22.788;2022-07-06T17:43:34;100801.94;;;28.13;nan
12213;BME280;6169;44.158;22.788;2022-07-06T17:48:38;100810.22;;;27.82;nan
12213;BME280;6169;44.158;22.788;2022-07-06T17:53:41;100807.03;;;27.66;nan
12213;BME280;6169;44.158;22.788;2022-07-06T17:58:43;100809.41;;;27.36;nan
12213;BME280;6169;44.158;22.788;2022-07-06T18:03:47;100807.53;;;27.23;nan
12213;BME280;6169;44.158;22.788;2022-07-06T18:08:50;100821.22;;;26.92;nan
12213;BME280;6169;44.158;22.788;2022-07-06T18:13:52;100814.19;;;27.44;nan
12213;BME280;6169;44.158;22.788;2022-07-06T18:18:59;100825.97;;;27.14;nan
12213;BME280;6169;44.158;22.788;2022-07-06T18:24:02;100829.09;;;26.98;nan
12213;BME280;6169;44.158;22.788;2022-07-06T18:29:05;100820.53;;;26.31;nan
12213;BME280;6169;44.158;22.788;2022-07-06T18:34:09;100826.28;;;26.48;nan
12213;BME280;6169;44.158;22.788;2022-07-06T18:39:11;100827.31;;;26.25;nan
12213;BME280;6169;44.158;22.788;2022-07-06T18:44:14;100843.66;;;26.21;nan
12213;BME280;6169;44.158;22.788;2022-07-06T18:49:17;100838.53;;;26.14;nan
12213;BME280;6169;44.158;22.788;2022-07-06T18:54:20;100849.41;;;26.25;nan
12213;BME280;6169;44.158;22.788;2022-07-06T18:59:22;100855.78;;;26.39;nan
12213;BME280;6169;44.158;22.788;2022-07-06T19:04:26;100851.09;;;25.93;nan
12213;BME280;6169;44.158;22.788;2022-07-06T19:09:28;100848.72;;;25.67;nan
12213;BME280;6169;44.158;22.788;2022-07-06T19:14:31;100850.19;;;25.79;nan
12213;BME280;6169;44.158;22.788;2022-07-06T19:19:34;100849.94;;;25.42;nan
12213;BME280;6169;44.158;22.788;2022-07-06T19:24:37;100845.09;;;25.53;nan
12213;BME280;6169;44.158;22.788;2022-07-06T19:29:39;100852.88;;;25.51;nan
12213;BME280;6169;44.158;22.788;2022-07-06T19:34:43;100843.53;;;25.47;nan
12213;BME280;6169;44.158;22.788;2022-07-06T19:39:46;100853.34;;;25.72;nan
12213;BME280;6169;44.158;22.788;2022-07-06T19:44:48;100864.50;;;25.48;nan
12213;BME280;6169;44.158;22.788;2022-07-06T19:49:52;100861.06;;;25.56;nan
12213;BME280;6169;44.158;22.788;2022-07-06T19:54:54;100863.75;;;25.61;nan
12213;BME280;6169;44.158;22.788;2022-07-06T19:59:56;100865.88;;;25.32;nan
12213;BME280;6169;44.158;22.788;2022-07-06T20:05:01;100870.53;;;25.12;nan
12213;BME280;6169;44.158;22.788;2022-07-06T20:10:03;100870.72;;;25.21;nan
12213;BME280;6169;44.158;22.788;2022-07-06T20:15:06;100870.00;;;25.10;nan
12213;BME280;6169;44.158;22.788;2022-07-06T20:20:11;100862.47;;;25.72;nan
12213;BME280;6169;44.158;22.788;2022-07-06T20:25:14;100866.16;;;25.49;nan
12213;BME280;6169;44.158;22.788;2022-07-06T20:30:16;100861.63;;;25.20;nan
12213;BME280;6169;44.158;22.788;2022-07-06T20:35:20;100844.59;;;25.51;nan
12213;BME280;6169;44.158;22.788;2022-07-06T20:40:22;100854.56;;;24.66;nan
12213;BME280;6169;44.158;22.788;2022-07-06T20:45:25;100859.75;;;24.49;nan
12213;BME280;6169;44.158;22.788;2022-07-06T20:50:29;100856.81;;;24.64;nan
12213;BME280;6169;44.158;22.788;2022-07-06T20:55:31;100858.69;;;25.31;nan
12213;BME280;6169;44.158;22.788;2022-07-06T21:00:33;100862.91;;;25.80;nan
12213;BME280;6169;44.158;22.788;2022-07-06T21:05:37;100866.56;;;25.75;nan
12213;BME280;6169;44.158;22.788;2022-07-06T21:10:39;100867.06;;;25.25;nan
12213;BME280;6169;44.158;22.788;2022-07-06T21:15:42;100862.63;;;25.05;nan
12213;BME280;6169;44.158;22.788;2022-07-06T21:20:45;100858.00;;;25.58;nan
12213;BME280;6169;44.158;22.788;2022-07-06T21:25:48;100866.31;;;25.20;nan
12213;BME280;6169;44.158;22.788;2022-07-06T21:30:50;100868.41;;;25.47;nan
12213;BME280;6169;44.158;22.788;2022-07-06T21:35:54;100874.91;;;25.18;nan
12213;BME280;6169;44.158;22.788;2022-07-06T21:40:57;100875.13;;;25.41;nan
12213;BME280;6169;44.158;22.788;2022-07-06T21:45:59;100880.81;;;24.34;nan
12213;BME280;6169;44.158;22.788;2022-07-06T21:51:03;100881.31;;;24.42;nan
12213;BME280;6169;44.158;22.788;2022-07-06T21:56:05;100878.16;;;24.77;nan
12213;BME280;6169;44.158;22.788;2022-07-06T22:01:08;100879.16;;;25.05;nan
12213;BME280;6169;44.158;22.788;2022-07-06T22:06:12;100878.38;;;26.13;nan
12213;BME280;6169;44.158;22.788;2022-07-06T22:11:14;100881.47;;;25.93;nan
12213;BME280;6169;44.158;22.788;2022-07-06T22:16:17;100881.25;;;25.38;nan
12213;BME280;6169;44.158;22.788;2022-07-06T22:21:22;100877.41;;;25.71;nan
12213;BME280;6169;44.158;22.788;2022-07-06T22:26:25;100874.03;;;24.75;nan
12213;BME280;6169;44.158;22.788;2022-07-06T22:31:27;100872.63;;;25.01;nan
12213;BME280;6169;44.158;22.788;2022-07-06T22:36:31;100870.81;;;25.86;nan
12213;BME280;6169;44.158;22.788;2022-07-06T22:41:34;100876.56;;;25.90;nan
12213;BME280;6169;44.158;22.788;2022-07-06T22:46:36;100868.59;;;25.69;nan
12213;BME280;6169;44.158;22.788;2022-07-06T22:51:40;100863.09;;;25.50;nan
12213;BME280;6169;44.158;22.788;2022-07-06T22:56:43;100875.94;;;25.93;nan
12213;BME280;6169;44.158;22.788;2022-07-06T23:01:45;100879.72;;;25.64;nan
12213;BME280;6169;44.158;22.788;2022-07-06T23:06:49;100875.38;;;24.58;nan
12213;BME280;6169;44.158;22.788;2022-07-06T23:11:52;100875.34;;;24.82;nan
12213;BME280;6169;44.158;22.788;2022-07-06T23:16:54;100868.97;;;24.34;nan
12213;BME280;6169;44.158;22.788;2022-07-06T23:21:58;100875.16;;;23.97;nan
12213;BME280;6169;44.158;22.788;2022-07-06T23:27:00;100873.31;;;23.82;nan
12213;BME280;6169;44.158;22.788;2022-07-06T23:32:03;100862.59;;;23.41;nan
12213;BME280;6169;44.158;22.788;2022-07-06T23:37:07;100877.25;;;23.31;nan
12213;BME280;6169;44.158;22.788;2022-07-06T23:42:09;100877.19;;;22.87;nan
12213;BME280;6169;44.158;22.788;2022-07-06T23:47:12;100872.97;;;23.15;nan
12213;BME280;6169;44.158;22.788;2022-07-06T23:52:15;100869.63;;;23.23;nan
12213;BME280;6169;44.158;22.788;2022-07-06T23:57:18;100865.91;;;23.43;nan
